createdAt,value
2019-01-19T00:00:01.935Z,101751.16
2019-01-19T00:02:37.030Z,101744.05
2019-01-19T00:05:11.733Z,101747.08
2019-01-19T00:07:46.417Z,101741.77
2019-01-19T00:10:33.285Z,101743.53
2019-01-19T00:13:23.411Z,101736.13
2019-01-19T00:16:04.221Z,101737.52
2019-01-19T00:18:52.581Z,101727.84
2019-01-19T00:21:27.544Z,101731.80
2019-01-19T00:24:05.187Z,101726.93
2019-01-19T00:26:49.229Z,101733.00
2019-01-19T00:29:23.918Z,101728.14
2019-01-19T00:32:02.053Z,101730.79
2019-01-19T00:34:59.941Z,101725.08
2019-01-19T00:37:32.175Z,101729.05
2019-01-19T00:40:22.317Z,101721.54
2019-01-19T00:42:54.932Z,101722.94
2019-01-19T00:45:29.688Z,101729.48
2019-01-19T00:48:10.797Z,101725.52
2019-01-19T00:50:54.802Z,101720.23
2019-01-19T00:53:29.560Z,101721.58
2019-01-19T00:56:10.707Z,101724.58
2019-01-19T00:58:42.971Z,101720.69
2019-01-19T01:01:15.249Z,101724.62
2019-01-19T01:03:50.379Z,101726.86
2019-01-19T01:06:38.790Z,101723.30
2019-01-19T01:09:19.822Z,101708.31
2019-01-19T01:11:54.524Z,101716.72
2019-01-19T01:14:52.180Z,101714.01
2019-01-19T01:17:27.205Z,101716.13
2019-01-19T01:20:08.402Z,101714.40
2019-01-19T01:22:58.472Z,101713.99
2019-01-19T01:25:33.474Z,101721.95
2019-01-19T01:28:23.575Z,101711.41
2019-01-19T01:30:55.853Z,101711.45
2019-01-19T01:33:33.986Z,101718.85
2019-01-19T01:36:08.842Z,101712.75
2019-01-19T01:39:17.775Z,101710.98
2019-01-19T01:41:53.027Z,101713.10
2019-01-19T01:44:30.662Z,101700.48
2019-01-19T01:47:11.461Z,101705.34
2019-01-19T01:49:52.597Z,101707.86
2019-01-19T01:52:27.548Z,101695.12
2019-01-19T01:55:02.423Z,101696.04
2019-01-19T01:57:33.367Z,101696.47
2019-01-19T02:00:23.895Z,101688.08
2019-01-19T02:02:56.141Z,101689.48
2019-01-19T02:05:40.194Z,101685.58
2019-01-19T02:08:16.964Z,101689.56
2019-01-19T02:11:10.037Z,101689.51
2019-01-19T02:14:00.099Z,101682.91
2019-01-19T02:17:06.872Z,101685.94
2019-01-19T02:19:59.418Z,101675.78
2019-01-19T02:22:37.358Z,101679.77
2019-01-19T02:25:18.006Z,101677.97
2019-01-19T02:27:55.478Z,101670.10
2019-01-19T02:30:46.912Z,101666.59
2019-01-19T02:33:28.026Z,101665.28
2019-01-19T02:36:15.106Z,101670.14
2019-01-19T02:39:20.302Z,101669.27
2019-01-19T02:41:55.495Z,101664.37
2019-01-19T02:44:30.469Z,101656.87
2019-01-19T02:47:24.676Z,101657.33
2019-01-19T02:50:11.663Z,101651.57
2019-01-19T02:52:46.593Z,101648.86
2019-01-19T02:55:45.702Z,101651.07
2019-01-19T02:58:29.400Z,101637.09
2019-01-19T03:01:16.984Z,101635.30
2019-01-19T03:03:57.269Z,101635.20
2019-01-19T03:06:35.229Z,101639.52
2019-01-19T03:09:09.989Z,101636.03
2019-01-19T03:15:15.401Z,101640.98
2019-01-19T03:18:02.383Z,101642.28
2019-01-19T03:20:34.637Z,101637.84
2019-01-19T03:23:09.620Z,101641.20
2019-01-19T03:25:41.941Z,101636.37
2019-01-19T03:28:19.990Z,101634.67
2019-01-19T03:31:25.157Z,101632.08
2019-01-19T03:34:11.973Z,101632.12
2019-01-19T03:36:44.227Z,101625.56
2019-01-19T03:39:29.211Z,101625.06
2019-01-19T03:42:07.162Z,101621.56
2019-01-19T03:44:41.833Z,101625.45
2019-01-19T03:47:39.058Z,101620.70
2019-01-19T03:50:32.299Z,101618.92
2019-01-19T03:53:04.636Z,101609.37
2019-01-19T03:55:36.856Z,101605.81
2019-01-19T03:58:21.143Z,101603.05
2019-01-19T04:01:14.795Z,101603.03
2019-01-19T04:04:05.196Z,101605.18
2019-01-19T04:06:43.149Z,101599.09
2019-01-19T04:09:36.299Z,101596.09
2019-01-19T04:12:13.910Z,101593.53
2019-01-19T04:15:05.804Z,101594.38
2019-01-19T04:17:41.563Z,101587.77
2019-01-19T04:20:31.468Z,101591.22
2019-01-19T04:23:01.791Z,101597.39
2019-01-19T04:25:34.057Z,101589.95
2019-01-19T04:28:04.586Z,101589.94
2019-01-19T04:30:33.772Z,101586.86
2019-01-19T04:33:02.889Z,101581.20
2019-01-19T04:35:32.161Z,101587.77
2019-01-19T04:38:01.260Z,101585.56
2019-01-19T04:40:30.494Z,101584.25
2019-01-19T04:42:59.740Z,101582.91
2019-01-19T04:45:28.850Z,101581.62
2019-01-19T04:47:57.968Z,101578.98
2019-01-19T04:50:27.195Z,101572.39
2019-01-19T04:52:56.411Z,101570.65
2019-01-19T04:55:25.665Z,101566.26
2019-01-19T04:57:54.888Z,101566.24
2019-01-19T05:00:24.153Z,101569.78
2019-01-19T05:02:53.418Z,101572.81
2019-01-19T05:05:22.641Z,101566.19
2019-01-19T05:07:51.840Z,101562.70
2019-01-19T05:10:21.036Z,101557.89
2019-01-19T05:12:50.268Z,101554.39
2019-01-19T05:15:19.741Z,101557.91
2019-01-19T05:17:49.207Z,101553.53
2019-01-19T05:20:18.493Z,101551.75
2019-01-19T05:22:47.680Z,101550.44
2019-01-19T05:25:16.893Z,101548.28
2019-01-19T05:27:46.147Z,101546.94
2019-01-19T05:30:17.345Z,101554.41
2019-01-19T05:32:46.788Z,101546.92
2019-01-19T05:35:16.181Z,101544.29
2019-01-19T05:37:45.399Z,101537.30
2019-01-19T05:40:14.682Z,101532.92
2019-01-19T05:42:43.879Z,101535.11
2019-01-19T05:45:14.611Z,101529.86
2019-01-19T05:47:43.813Z,101537.77
2019-01-19T05:50:16.052Z,101529.00
2019-01-19T05:52:45.321Z,101517.09
2019-01-19T05:55:14.545Z,101529.89
2019-01-19T05:57:43.762Z,101525.05
2019-01-19T06:00:18.440Z,101527.66
2019-01-19T06:02:47.617Z,101527.25
2019-01-19T06:05:16.962Z,101528.56
2019-01-19T06:07:46.157Z,101535.58
2019-01-19T06:10:17.156Z,101529.45
2019-01-19T06:12:46.361Z,101532.04
2019-01-19T06:15:16.303Z,101536.48
2019-01-19T06:17:45.481Z,101532.09
2019-01-19T06:20:19.195Z,101538.20
2019-01-19T06:23:06.281Z,101539.52
2019-01-19T06:25:53.551Z,101538.17
2019-01-19T06:28:22.767Z,101533.80
2019-01-19T06:30:52.131Z,101528.55
2019-01-19T06:33:21.542Z,101523.73
2019-01-19T06:35:50.658Z,101527.66
2019-01-19T06:38:19.848Z,101518.87
2019-01-19T06:40:49.059Z,101521.95
2019-01-19T06:43:18.251Z,101511.87
2019-01-19T06:45:47.450Z,101514.50
2019-01-19T06:48:16.651Z,101517.16
2019-01-19T06:50:45.841Z,101512.72
2019-01-19T06:53:15.038Z,101517.98
2019-01-19T06:55:44.462Z,101512.75
2019-01-19T06:58:13.647Z,101520.66
2019-01-19T07:00:42.891Z,101518.00
2019-01-19T07:03:12.059Z,101510.55
2019-01-19T07:05:41.307Z,101514.03
2019-01-19T07:08:28.825Z,101513.64
2019-01-19T07:11:15.903Z,101512.75
2019-01-19T07:13:45.145Z,101514.06
2019-01-19T07:16:14.332Z,101510.15
2019-01-19T07:18:43.536Z,101514.53
2019-01-19T07:21:12.764Z,101511.05
2019-01-19T07:23:42.031Z,101511.95
2019-01-19T07:26:11.595Z,101510.15
2019-01-19T07:28:40.794Z,101513.69
2019-01-19T07:31:10.200Z,101510.64
2019-01-19T07:33:39.417Z,101515.91
2019-01-19T07:36:08.622Z,101509.35
2019-01-19T07:38:37.811Z,101511.11
2019-01-19T07:41:07.003Z,101510.67
2019-01-19T07:43:36.268Z,101515.47
2019-01-19T07:46:07.091Z,101508.94
2019-01-19T07:48:36.285Z,101508.95
2019-01-19T07:51:05.510Z,101516.41
2019-01-19T07:53:34.689Z,101512.01
2019-01-19T07:56:04.047Z,101512.91
2019-01-19T07:58:33.291Z,101512.03
2019-01-19T08:01:02.489Z,101510.73
2019-01-19T08:03:31.714Z,101510.33
2019-01-19T08:06:00.911Z,101509.86
2019-01-19T08:08:30.107Z,101509.41
2019-01-19T08:10:59.377Z,101513.41
2019-01-19T08:13:28.524Z,101512.97
2019-01-19T08:15:57.707Z,101519.13
2019-01-19T08:18:26.918Z,101517.38
2019-01-19T08:20:56.125Z,101508.10
2019-01-19T08:23:26.220Z,101528.33
2019-01-19T08:25:55.473Z,101523.97
2019-01-19T08:28:24.706Z,101530.53
2019-01-19T08:30:53.975Z,101527.91
2019-01-19T08:33:23.180Z,101527.06
2019-01-19T08:35:52.400Z,101529.22
2019-01-19T08:38:22.539Z,101525.75
2019-01-19T08:40:51.763Z,101526.67
2019-01-19T08:43:28.877Z,101530.23
2019-01-19T08:45:58.059Z,101533.33
2019-01-19T08:48:27.254Z,101532.86
2019-01-19T08:50:56.458Z,101532.43
2019-01-19T08:53:25.640Z,101523.22
2019-01-19T08:55:54.841Z,101526.34
2019-01-19T08:58:24.100Z,101522.45
2019-01-19T09:00:53.285Z,101526.90
2019-01-19T09:03:22.459Z,101522.47
2019-01-19T09:05:51.733Z,101527.34
2019-01-19T09:08:38.889Z,101523.88
2019-01-19T09:11:08.122Z,101530.46
2019-01-19T09:13:55.332Z,101519.45
2019-01-19T09:16:42.548Z,101522.98
2019-01-19T09:19:11.740Z,101523.41
2019-01-19T09:21:40.948Z,101522.52
2019-01-19T09:24:10.821Z,101522.08
2019-01-19T09:26:39.998Z,101527.83
2019-01-19T09:29:09.187Z,101513.72
2019-01-19T09:31:38.438Z,101525.16
2019-01-19T09:34:07.617Z,101514.17
2019-01-19T09:36:36.880Z,101509.29
2019-01-19T09:39:09.401Z,101513.19
2019-01-19T09:41:38.578Z,101513.95
2019-01-19T09:44:09.993Z,101511.91
2019-01-19T09:46:39.267Z,101512.41
2019-01-19T09:49:08.606Z,101507.61
2019-01-19T09:51:37.959Z,101511.55
2019-01-19T09:54:07.447Z,101515.94
2019-01-19T09:56:36.612Z,101518.58
2019-01-19T09:59:06.790Z,101508.05
2019-01-19T10:01:54.097Z,101512.42
2019-01-19T10:04:23.260Z,101508.90
2019-01-19T10:06:53.551Z,101509.36
2019-01-19T10:09:22.860Z,101512.86
2019-01-19T10:11:52.112Z,101510.66
2019-01-19T10:14:21.297Z,101501.00
2019-01-19T10:16:50.530Z,101510.67
2019-01-19T10:19:37.562Z,101504.95
2019-01-19T10:22:25.017Z,101502.77
2019-01-19T10:24:54.217Z,101498.82
2019-01-19T10:27:23.425Z,101495.72
2019-01-19T10:30:14.033Z,101486.92
2019-01-19T10:32:43.212Z,101493.53
2019-01-19T10:35:14.060Z,101500.13
2019-01-19T10:37:43.370Z,101489.58
2019-01-19T10:40:15.196Z,101492.20
2019-01-19T10:42:44.395Z,101483.81
2019-01-19T10:45:16.318Z,101487.36
2019-01-19T10:47:45.583Z,101487.80
2019-01-19T10:50:17.263Z,101482.50
2019-01-19T10:52:46.935Z,101478.55
2019-01-19T10:55:18.880Z,101478.95
2019-01-19T10:58:06.231Z,101478.95
2019-01-19T11:00:35.967Z,101476.76
2019-01-19T11:03:05.595Z,101474.95
2019-01-19T11:05:34.809Z,101472.77
2019-01-19T11:08:06.497Z,101468.36
2019-01-19T11:10:36.188Z,101472.77
2019-01-19T11:13:05.396Z,101466.59
2019-01-19T11:15:34.619Z,101457.34
2019-01-19T11:18:03.870Z,101457.77
2019-01-19T11:20:51.237Z,101452.48
2019-01-19T11:23:20.514Z,101455.53
2019-01-19T11:25:49.635Z,101448.06
2019-01-19T11:28:18.868Z,101453.31
2019-01-19T11:30:48.135Z,101444.10
2019-01-19T11:33:17.327Z,101436.59
2019-01-19T11:35:46.529Z,101437.01
2019-01-19T11:38:20.020Z,101430.40
2019-01-19T11:40:46.696Z,101422.43
2019-01-19T11:43:15.918Z,101429.89
2019-01-19T11:45:45.209Z,101421.97
2019-01-19T11:48:14.475Z,101418.87
2019-01-19T11:50:43.730Z,101417.49
2019-01-19T11:53:13.005Z,101410.89
2019-01-19T11:55:42.222Z,101418.46
2019-01-19T11:58:11.472Z,101410.53
2019-01-19T12:00:41.020Z,101412.27
2019-01-19T12:03:10.222Z,101405.66
2019-01-19T12:05:39.771Z,101404.73
2019-01-19T12:08:09.922Z,101399.84
2019-01-19T12:10:39.167Z,101394.11
2019-01-19T12:13:08.486Z,101397.21
2019-01-19T12:15:37.760Z,101400.72
2019-01-19T12:18:07.310Z,101396.73
2019-01-19T12:20:41.782Z,101394.05
2019-01-19T12:23:28.983Z,101393.17
2019-01-19T12:25:58.206Z,101390.06
2019-01-19T12:28:27.418Z,101382.08
2019-01-19T12:30:56.641Z,101388.61
2019-01-19T12:33:25.844Z,101383.77
2019-01-19T12:35:55.061Z,101379.73
2019-01-19T12:38:27.063Z,101372.73
2019-01-19T12:40:55.153Z,101374.47
2019-01-19T12:43:24.436Z,101370.04
2019-01-19T12:45:55.376Z,101376.63
2019-01-19T12:48:24.638Z,101372.73
2019-01-19T12:50:53.900Z,101369.17
2019-01-19T12:53:23.088Z,101367.38
2019-01-19T12:55:52.274Z,101360.30
2019-01-19T12:58:21.665Z,101364.25
2019-01-19T13:00:50.848Z,101347.00
2019-01-19T13:03:20.073Z,101346.53
2019-01-19T13:05:54.931Z,101340.36
2019-01-19T13:08:34.380Z,101340.36
2019-01-19T13:11:17.387Z,101329.81
2019-01-19T13:13:47.930Z,101332.93
2019-01-19T13:16:38.549Z,101327.22
2019-01-19T13:19:19.667Z,101326.70
2019-01-19T13:22:25.077Z,101327.59
2019-01-19T13:25:00.148Z,101324.48
2019-01-19T13:27:43.866Z,101315.35
2019-01-19T13:30:27.760Z,101311.39
2019-01-19T13:33:00.129Z,101306.92
2019-01-19T13:35:32.281Z,101304.20
2019-01-19T13:38:22.461Z,101303.69
2019-01-19T13:40:57.571Z,101303.70
2019-01-19T13:43:29.853Z,101296.33
2019-01-19T13:46:16.190Z,101297.50
2019-01-19T13:48:57.012Z,101296.55
2019-01-19T13:51:34.968Z,101292.16
2019-01-19T13:54:34.526Z,101290.87
2019-01-19T13:57:09.451Z,101292.28
2019-01-19T13:59:47.012Z,101287.09
2019-01-19T14:02:28.160Z,101280.02
2019-01-19T14:05:12.210Z,101276.14
2019-01-19T14:08:15.852Z,101272.19
2019-01-19T14:10:53.585Z,101274.84
2019-01-19T14:13:31.366Z,101272.55
2019-01-19T14:16:15.415Z,101275.13
2019-01-19T14:21:54.885Z,101259.23
2019-01-19T14:24:32.684Z,101264.14
2019-01-19T14:27:10.697Z,101256.57
2019-01-19T14:29:58.070Z,101261.47
2019-01-19T14:32:50.925Z,101263.28
2019-01-19T14:35:23.927Z,101259.02
2019-01-19T14:38:07.840Z,101256.38
2019-01-19T14:40:42.665Z,101251.05
2019-01-19T14:43:17.763Z,101259.45
2019-01-19T14:45:58.710Z,101250.23
2019-01-19T14:48:33.393Z,101237.39
2019-01-19T14:51:14.339Z,101244.86
2019-01-19T14:54:00.712Z,101245.28
2019-01-19T14:59:29.349Z,101229.38
2019-01-19T15:02:18.306Z,101237.81
2019-01-19T15:04:56.013Z,101236.96
2019-01-19T15:07:33.911Z,101231.73
2019-01-19T15:10:08.876Z,101231.66
2019-01-19T15:12:41.124Z,101239.12
2019-01-19T15:15:37.238Z,101233.91
2019-01-19T15:18:12.094Z,101237.42
2019-01-19T15:20:44.385Z,101230.42
2019-01-19T15:23:19.389Z,101235.75
2019-01-19T15:26:15.004Z,101236.21
2019-01-19T15:29:03.590Z,101229.60
2019-01-19T15:31:48.013Z,101235.42
2019-01-19T15:34:31.261Z,101232.33
2019-01-19T15:37:09.067Z,101227.06
2019-01-19T15:39:41.326Z,101230.22
2019-01-19T15:42:35.940Z,101231.62
2019-01-19T15:45:10.688Z,101230.78
2019-01-19T15:48:00.804Z,101229.08
2019-01-19T15:51:04.741Z,101231.73
2019-01-19T15:53:56.483Z,101222.48
2019-01-19T15:56:43.658Z,101228.23
2019-01-19T15:59:32.485Z,101223.88
2019-01-19T16:02:16.925Z,101229.63
2019-01-19T16:04:55.081Z,101236.70
2019-01-19T16:07:49.177Z,101235.40
2019-01-19T16:10:32.975Z,101237.64
2019-01-19T16:13:29.147Z,101242.06
2019-01-19T16:16:04.018Z,101238.56
2019-01-19T16:18:44.888Z,101238.56
2019-01-19T16:21:17.171Z,101236.39
2019-01-19T16:24:14.885Z,101239.48
2019-01-19T16:26:55.878Z,101237.77
2019-01-19T16:29:48.765Z,101241.73
2019-01-19T16:32:30.001Z,101244.36
2019-01-19T16:35:20.431Z,101240.41
2019-01-19T16:37:55.504Z,101236.05
2019-01-19T16:40:42.531Z,101242.59
2019-01-19T16:43:20.225Z,101243.05
2019-01-19T16:45:52.492Z,101237.33
2019-01-19T16:48:53.373Z,101237.83
2019-01-19T16:51:58.642Z,101231.65
2019-01-19T16:54:39.590Z,101235.15
2019-01-19T16:57:15.138Z,101230.78
2019-01-19T16:59:56.804Z,101236.98
2019-01-19T17:02:34.947Z,101235.20
2019-01-19T17:05:24.357Z,101244.85
2019-01-19T17:08:12.746Z,101240.92
2019-01-19T17:11:05.892Z,101237.38
2019-01-19T17:13:40.687Z,101242.21
2019-01-19T17:16:30.851Z,101240.52
2019-01-19T17:19:14.891Z,101244.94
2019-01-19T17:21:49.963Z,101241.41
2019-01-19T17:24:46.464Z,101248.91
2019-01-19T17:27:24.503Z,101248.05
2019-01-19T17:30:31.252Z,101241.40
2019-01-19T17:33:08.807Z,101238.77
2019-01-19T17:35:49.581Z,101245.41
2019-01-19T17:38:47.507Z,101240.98
2019-01-19T17:41:25.024Z,101245.87
2019-01-19T17:44:06.438Z,101243.22
2019-01-19T17:46:55.189Z,101245.00
2019-01-19T17:49:43.629Z,101240.59
2019-01-19T17:52:21.604Z,101243.68
2019-01-19T17:55:05.985Z,101242.36
2019-01-19T17:57:43.999Z,101248.52
2019-01-19T18:00:32.895Z,101241.50
2019-01-19T18:03:23.296Z,101238.00
2019-01-19T18:05:58.267Z,101239.77
2019-01-19T18:08:56.133Z,101243.73
2019-01-19T18:11:43.421Z,101250.33
2019-01-19T18:14:21.594Z,101238.45
2019-01-19T18:17:20.935Z,101238.45
2019-01-19T18:20:08.038Z,101236.23
2019-01-19T18:22:43.065Z,101241.05
2019-01-19T18:25:32.945Z,101236.28
2019-01-19T18:28:05.249Z,101241.97
2019-01-19T18:30:38.371Z,101236.73
2019-01-19T18:33:25.527Z,101235.87
2019-01-19T18:35:57.785Z,101231.05
2019-01-19T18:38:30.020Z,101231.05
2019-01-19T18:41:04.797Z,101238.09
2019-01-19T18:44:06.005Z,101240.28
2019-01-19T18:46:54.413Z,101240.77
2019-01-19T18:49:44.487Z,101241.64
2019-01-19T18:52:35.167Z,101241.19
2019-01-19T18:55:16.315Z,101239.91
2019-01-19T18:58:03.284Z,101247.81
2019-01-19T19:00:50.211Z,101246.98
2019-01-19T19:03:44.570Z,101243.03
2019-01-19T19:06:23.085Z,101247.02
2019-01-19T19:08:58.174Z,101249.65
2019-01-19T19:11:47.994Z,101250.55
2019-01-19T19:14:25.929Z,101245.27
2019-01-19T19:17:03.555Z,101250.99
2019-01-19T19:22:25.472Z,101251.87
2019-01-19T19:25:20.555Z,101252.31
2019-01-19T19:28:10.946Z,101246.59
2019-01-19T19:30:43.430Z,101251.44
2019-01-19T19:33:20.991Z,101251.02
2019-01-19T19:36:13.453Z,101250.14
2019-01-19T19:39:09.522Z,101249.72
2019-01-19T19:41:43.691Z,101253.22
2019-01-19T19:44:21.917Z,101254.13
2019-01-19T19:47:08.990Z,101251.06
2019-01-19T19:49:49.980Z,101262.02
2019-01-19T19:52:19.298Z,101254.13
2019-01-19T19:54:53.311Z,101250.64
2019-01-19T19:57:22.475Z,101261.62
2019-01-19T19:59:55.959Z,101255.90
2019-01-19T20:02:25.271Z,101256.77
2019-01-19T20:04:54.538Z,101256.77
2019-01-19T20:07:23.759Z,101258.52
2019-01-19T20:09:52.942Z,101258.53
2019-01-19T20:12:22.219Z,101255.89
2019-01-19T20:14:51.407Z,101252.41
2019-01-19T20:17:20.674Z,101251.05
2019-01-19T20:19:49.868Z,101253.70
2019-01-19T20:22:19.042Z,101248.89
2019-01-19T20:24:48.318Z,101247.12
2019-01-19T20:27:17.522Z,101251.50
2019-01-19T20:29:46.720Z,101257.22
2019-01-19T20:32:15.904Z,101256.32
2019-01-19T20:34:45.117Z,101250.61
2019-01-19T20:37:14.303Z,101251.05
2019-01-19T20:39:43.491Z,101250.18
2019-01-19T20:42:12.688Z,101247.13
2019-01-19T20:44:41.876Z,101253.72
2019-01-19T20:47:11.058Z,101256.75
2019-01-19T20:49:40.293Z,101251.05
2019-01-19T20:52:09.556Z,101257.20
2019-01-19T20:54:38.942Z,101258.52
2019-01-19T20:57:08.080Z,101257.64
2019-01-19T20:59:37.367Z,101260.70
2019-01-19T21:02:06.642Z,101260.28
2019-01-19T21:04:35.868Z,101259.81
2019-01-19T21:07:05.223Z,101263.36
2019-01-19T21:09:34.465Z,101264.66
2019-01-19T21:12:03.643Z,101263.31
2019-01-19T21:14:32.832Z,101267.28
2019-01-19T21:17:02.035Z,101265.06
2019-01-19T21:19:31.222Z,101268.13
2019-01-19T21:22:00.408Z,101275.17
2019-01-19T21:24:29.690Z,101277.78
2019-01-19T21:26:58.864Z,101272.52
2019-01-19T21:29:28.138Z,101274.29
2019-01-19T21:31:57.357Z,101278.67
2019-01-19T21:34:26.544Z,101272.52
2019-01-19T21:36:55.816Z,101279.10
2019-01-19T21:39:25.030Z,101278.20
2019-01-19T21:41:54.230Z,101280.39
2019-01-19T21:44:23.424Z,101283.02
2019-01-19T21:46:52.660Z,101285.66
2019-01-19T21:49:21.991Z,101289.16
2019-01-19T21:51:51.160Z,101279.52
2019-01-19T21:54:20.418Z,101282.59
2019-01-19T21:56:49.596Z,101280.38
2019-01-19T21:59:18.800Z,101277.28
2019-01-19T22:01:47.988Z,101278.59
2019-01-19T22:04:17.176Z,101277.72
2019-01-19T22:06:46.362Z,101282.10
2019-01-19T22:09:17.480Z,101284.30
2019-01-19T22:11:46.676Z,101288.25
2019-01-19T22:14:15.904Z,101286.48
2019-01-19T22:16:45.122Z,101289.96
2019-01-19T22:19:14.320Z,101294.77
2019-01-19T22:21:43.496Z,101294.35
2019-01-19T22:24:12.960Z,101289.08
2019-01-19T22:26:43.724Z,101296.09
2019-01-19T22:29:12.908Z,101292.98
2019-01-19T22:31:42.105Z,101296.05
2019-01-19T22:34:11.298Z,101295.17
2019-01-19T22:36:40.490Z,101300.42
2019-01-19T22:39:09.704Z,101300.41
2019-01-19T22:41:38.905Z,101304.80
2019-01-19T22:44:08.189Z,101303.45
2019-01-19T22:46:37.475Z,101306.51
2019-01-19T22:49:06.726Z,101308.27
2019-01-19T22:51:35.852Z,101298.20
2019-01-19T22:54:05.142Z,101307.80
2019-01-19T22:56:34.318Z,101309.11
2019-01-19T22:59:03.687Z,101308.27
2019-01-19T23:01:35.578Z,101307.38
2019-01-19T23:04:04.952Z,101314.34
2019-01-19T23:06:34.146Z,101312.58
2019-01-19T23:09:05.355Z,101311.27
2019-01-19T23:11:35.205Z,101314.74
2019-01-19T23:14:06.197Z,101318.66
2019-01-19T23:16:35.419Z,101317.78
2019-01-19T23:19:04.763Z,101308.56
2019-01-19T23:21:33.951Z,101312.05
2019-01-19T23:24:03.224Z,101312.08
2019-01-19T23:26:33.180Z,101314.25
2019-01-19T23:29:02.379Z,101316.41
2019-01-19T23:31:31.585Z,101318.62
2019-01-19T23:34:00.775Z,101315.96
2019-01-19T23:36:29.977Z,101319.44
2019-01-19T23:38:59.195Z,101320.76
2019-01-19T23:41:28.374Z,101322.50
2019-01-19T23:43:57.567Z,101323.81
2019-01-19T23:46:26.775Z,101321.58
2019-01-19T23:48:56.104Z,101324.20
2019-01-19T23:51:25.297Z,101325.52
2019-01-19T23:53:54.691Z,101325.51
2019-01-19T23:56:23.874Z,101332.52
2019-01-19T23:58:53.143Z,101325.49
